weather.gov     
National Weather Service

Terminal Aerodrome Forecast
NWS Homepage
This page is being discontinued on March 12, 2014.
The same data is available at this site. Please update your bookmarks.
Thank you, and we apologize for the inconvenience.
Please send an email to SR-SRH.Webmaster@noaa.gov with any concerns.


Current Version
Previous Version:    01  02  03  04  05  06  07  08  09  10  11  12  13  14  15  16  17  18  19  20  21  22  23  24  25  26  27  28  29  30  
   31  32  33  34  35  36  37  38  39  40  41  42  43  44  
[Printable]
258
FTUS45 KBOU 222340
TAFBJC
TAF
KBJC 222340Z 2300/2324 24007KT P6SM VCSH SCT035 OVC060
      TEMPO 2302/2306 VRB15G25KT 4SM TSRA BKN035CB
     FM230600 31006KT P6SM SCT050 OVC080
     FM230800 31004KT P6SM SCT080 BKN120
     FM231500 28009KT P6SM SCT080 SCT120=


258
FTUS45 KBOU 222340
TAFBJC
TAF
KBJC 222340Z 2300/2324 24007KT P6SM VCSH SCT035 OVC060
      TEMPO 2302/2306 VRB15G25KT 4SM TSRA BKN035CB
     FM230600 31006KT P6SM SCT050 OVC080
     FM230800 31004KT P6SM SCT080 BKN120
     FM231500 28009KT P6SM SCT080 SCT120=




U.S. Dept. of Commerce
NOAA National Weather Service
1325 East West Highway
Silver Spring, MD 20910
E-mail: w-nws.webmaster@noaa.gov
Page last modified: May 16, 2007
NATIONAL WEATHER SERVICE: for Safety, for Work, for Fun - FOR LIFE